Time;durP1;ratioP1;P1;durP2;ratioP2;P2;SDS_P1;SDS_P2;PMS_P1;PMS_P2;Temp;Humidity;BMP_temperature;BMP_pressure;BME280_temperature;BME280_humidity;BME280_pressure;Samples;Min_cycle;Max_cycle;Signal;HPM_P1;HPM_P2
2023/03/15 00:00:23;;;;;;;3.78;2.13;;;;;;;8.15;49.33;98165.94;5088953;28;20044;-71
2023/03/15 00:02:50;;;;;;;4.82;2.05;;;;;;;8.14;49.29;98172.16;5087813;28;20086;-71
2023/03/15 00:05:17;;;;;;;3.25;1.73;;;;;;;6.97;49.26;98009.03;5087430;28;20045;-72
2023/03/15 00:07:45;;;;;;;2.42;1.70;;;;;;;7.90;49.43;98142.91;5088609;28;20307;-72
2023/03/15 00:10:12;;;;;;;3.25;1.83;;;;;;;7.77;49.19;98132.28;5088253;28;20327;-71
2023/03/15 00:12:41;;;;;;;2.75;2.03;;;;;;;7.36;49.14;98064.53;5088756;28;20184;-71
2023/03/15 00:15:08;;;;;;;4.07;1.85;;;;;;;8.12;49.31;98182.81;5071407;28;20041;-71
2023/03/15 00:17:35;;;;;;;3.95;1.60;;;;;;;8.12;49.29;98190.72;5087807;28;20157;-71
2023/03/15 00:20:03;;;;;;;4.15;1.70;;;;;;;8.14;49.29;98188.00;5088633;28;20046;-71
2023/03/15 00:22:29;;;;;;;3.10;1.98;;;;;;;8.13;49.13;98196.84;5087759;28;20068;-72
2023/03/15 00:24:57;;;;;;;6.28;4.45;;;;;;;8.14;50.27;98203.81;5087013;28;20123;-70
2023/03/15 00:27:24;;;;;;;4.50;3.20;;;;;;;7.94;49.84;98161.09;5087013;28;20313;-71
2023/03/15 00:29:51;;;;;;;3.40;2.00;;;;;;;8.16;49.53;98201.94;5087115;28;20041;-70
2023/03/15 00:32:18;;;;;;;4.07;2.13;;;;;;;8.17;49.44;98196.56;5087833;28;20041;-71
2023/03/15 00:34:48;;;;;;;3.47;2.40;;;;;;;8.15;49.36;98203.72;5088323;28;20036;-71
2023/03/15 00:37:15;;;;;;;2.72;1.60;;;;;;;8.15;49.24;98208.16;5087778;28;20041;-71
2023/03/15 00:39:44;;;;;;;3.45;2.30;;;;;;;8.16;49.17;98197.50;5087182;28;20090;-71
2023/03/15 00:42:14;;;;;;;4.80;1.98;;;;;;;7.58;49.04;98123.84;5087598;28;20032;-71
2023/03/15 00:44:42;;;;;;;3.53;1.67;;;;;;;8.12;49.01;98203.06;5087550;28;20048;-71
2023/03/15 00:47:09;;;;;;;3.95;2.10;;;;;;;7.65;48.94;98127.78;5086994;28;20070;-71
2023/03/15 00:49:36;;;;;;;3.13;2.25;;;;;;;8.16;48.90;98207.22;5087458;28;20040;-71
2023/03/15 00:52:03;;;;;;;3.58;1.90;;;;;;;4.88;48.71;97703.41;5087971;28;20041;-71
2023/03/15 00:54:32;;;;;;;3.45;2.00;;;;;;;8.14;48.83;98220.50;5087520;28;20115;-72
2023/03/15 00:56:59;;;;;;;5.63;1.92;;;;;;;8.14;48.89;98214.38;5086812;28;20040;-71
2023/03/15 00:59:33;;;;;;;3.47;2.35;;;;;;;8.13;48.27;98225.88;5086523;28;20185;-71
2023/03/15 01:02:01;;;;;;;3.30;1.90;;;;;;;8.12;48.61;98232.94;5087186;28;20036;-71
2023/03/15 01:04:28;;;;;;;3.42;2.20;;;;;;;7.65;48.90;98152.34;5087383;28;20273;-71
2023/03/15 01:06:55;;;;;;;3.53;1.85;;;;;;;8.11;48.71;98231.25;5087078;28;20033;-72
2023/03/15 01:09:23;;;;;;;3.92;2.13;;;;;;;7.20;48.81;98099.81;5086480;28;20055;-72
2023/03/15 01:11:49;;;;;;;4.03;2.22;;;;;;;7.56;48.59;98146.81;5087031;28;20040;-71
2023/03/15 01:14:17;;;;;;;4.13;2.58;;;;;;;8.10;48.52;98248.03;5087249;28;20047;-71
2023/03/15 01:16:46;;;;;;;3.53;1.83;;;;;;;8.11;48.60;98244.44;5087171;28;20044;-71
2023/03/15 01:19:13;;;;;;;4.25;2.15;;;;;;;8.11;48.72;98249.72;5086883;28;20051;-71
2023/03/15 01:21:40;;;;;;;5.03;2.40;;;;;;;8.10;48.82;98284.97;5086487;28;20032;-71
2023/03/15 01:24:12;;;;;;;2.85;1.75;;;;;;;8.11;48.71;98251.53;5087227;28;20049;-71
2023/03/15 01:26:38;;;;;;;3.55;1.92;;;;;;;8.11;48.65;98256.81;5085747;28;20256;-71
2023/03/15 01:29:05;;;;;;;3.60;1.98;;;;;;;8.12;48.89;98261.97;5086972;28;20319;-71
2023/03/15 01:31:32;;;;;;;2.83;1.83;;;;;;;8.13;49.31;98266.31;5086886;28;20303;-72
2023/03/15 01:34:00;;;;;;;2.55;1.70;;;;;;;7.92;49.79;98234.19;5086617;28;20348;-72
2023/03/15 01:36:27;;;;;;;2.70;1.88;;;;;;;8.13;50.51;98266.31;5085737;28;20048;-71
2023/03/15 01:38:54;;;;;;;3.35;1.90;;;;;;;8.11;51.28;98283.19;5085841;28;20310;-71
2023/03/15 01:41:23;;;;;;;2.88;1.70;;;;;;;8.08;51.53;98286.88;5087039;28;20056;-71
2023/03/15 01:43:50;;;;;;;2.50;1.83;;;;;;;8.05;51.87;98299.41;5086394;28;20045;-71
2023/03/15 01:46:28;;;;;;;2.33;1.70;;;;;;;7.99;52.77;98292.72;5085450;28;20051;-71
2023/03/15 01:49:00;;;;;;;2.72;1.70;;;;;;;7.95;52.11;98302.59;5086512;28;20050;-71
2023/03/15 01:51:34;;;;;;;2.65;1.70;;;;;;;7.72;52.45;98268.88;5085528;28;20036;-72
2023/03/15 01:54:06;;;;;;;3.05;2.15;;;;;;;4.13;52.18;97683.19;5085356;28;20051;-71
2023/03/15 01:56:35;;;;;;;2.53;1.75;;;;;;;7.91;52.23;98322.19;5086691;28;20040;-71
2023/03/15 01:59:05;;;;;;;2.63;1.80;;;;;;;7.90;52.20;98320.50;5086069;28;20308;-72
2023/03/15 02:01:36;;;;;;;2.60;1.80;;;;;;;7.90;52.20;98328.41;5086621;28;20041;-71
2023/03/15 02:04:07;;;;;;;2.20;1.52;;;;;;;7.87;52.24;98325.97;5085474;28;20052;-72
2023/03/15 02:06:36;;;;;;;2.58;1.73;;;;;;;7.85;52.27;98327.84;5085886;28;20051;-71
2023/03/15 02:09:06;;;;;;;2.45;1.80;;;;;;;7.85;52.21;98325.22;5086136;28;20212;-72
2023/03/15 02:11:34;;;;;;;2.58;1.75;;;;;;;7.80;52.37;98340.47;5085975;28;20040;-71
2023/03/15 02:14:02;;;;;;;2.92;1.90;;;;;;;7.80;52.54;98344.88;5085988;28;20046;-71
2023/03/15 02:16:30;;;;;;;3.17;2.20;;;;;;;6.77;52.35;98196.31;5085803;28;20094;-71
2023/03/15 02:18:57;;;;;;;2.50;2.10;;;;;;;7.76;52.43;98354.78;5084996;28;20046;-72
2023/03/15 02:21:39;;;;;;;2.40;1.90;;;;;;;7.73;52.63;98348.84;5086082;28;20044;-72
2023/03/15 02:24:19;;;;;;;3.00;2.20;;;;;;;7.46;52.58;98295.94;5086015;28;20059;-72
2023/03/15 02:26:50;;;;;;;3.15;2.10;;;;;;;7.67;52.65;98340.34;5085832;28;20079;-71
2023/03/15 02:29:19;;;;;;;2.75;2.13;;;;;;;7.63;52.50;98343.25;5084911;28;20040;-72
2023/03/15 02:31:45;;;;;;;3.58;2.15;;;;;;;7.61;52.53;98332.81;5086143;28;20050;-71
2023/03/15 02:34:12;;;;;;;3.90;2.28;;;;;;;7.34;52.48;98298.38;5068021;28;20041;-71
2023/03/15 02:36:39;;;;;;;3.75;2.20;;;;;;;7.54;52.62;98331.47;5085491;28;20040;-71
2023/03/15 02:39:15;;;;;;;3.28;2.47;;;;;;;7.21;52.96;98296.50;5084619;28;20032;-71
2023/03/15 02:41:45;;;;;;;2.58;2.10;;;;;;;7.48;52.73;98333.63;5086020;28;20208;-70
2023/03/15 02:44:16;;;;;;;3.05;2.30;;;;;;;7.44;52.74;98321.56;5084535;28;20041;-71
2023/03/15 02:46:47;;;;;;;2.70;1.92;;;;;;;7.41;52.68;98459.66;5085223;28;20047;-71
2023/03/15 02:49:17;;;;;;;2.55;1.90;;;;;;;7.40;52.78;98323.53;5085269;28;20040;-71
2023/03/15 02:51:43;;;;;;;2.60;2.20;;;;;;;7.38;52.72;98335.94;5083882;28;20056;-71
2023/03/15 02:54:10;;;;;;;2.90;2.25;;;;;;;6.98;53.10;98276.75;5085893;28;20047;-71
2023/03/15 02:56:37;;;;;;;2.67;2.17;;;;;;;7.33;52.82;98351.16;5085819;28;20051;-71
2023/03/15 02:59:04;;;;;;;3.05;2.50;;;;;;;7.30;52.74;98341.63;5084779;28;20074;-71
2023/03/15 03:01:31;;;;;;;2.97;2.30;;;;;;;7.01;52.88;98303.78;5085608;28;20216;-71
2023/03/15 03:03:59;;;;;;;3.25;2.70;;;;;;;7.22;52.86;98351.75;5085536;28;20299;-71
2023/03/15 03:06:26;;;;;;;2.60;2.10;;;;;;;7.16;52.96;98359.16;5085425;28;20041;-71
2023/03/15 03:08:53;;;;;;;2.85;2.25;;;;;;;7.13;53.07;98356.72;5085735;28;20044;-71
2023/03/15 03:11:20;;;;;;;6.28;2.95;;;;;;;6.57;52.98;98258.88;5084283;28;20044;-71
2023/03/15 03:13:46;;;;;;;3.10;2.65;;;;;;;6.52;52.98;98295.13;5084416;28;20250;-70
2023/03/15 03:16:13;;;;;;;3.85;2.80;;;;;;;7.11;53.08;98362.06;5085139;28;20040;-71
2023/03/15 03:18:41;;;;;;;2.80;2.33;;;;;;;7.09;52.92;98356.03;5084557;28;20033;-71
2023/03/15 03:21:09;;;;;;;3.45;2.42;;;;;;;7.08;53.06;98367.50;5084355;28;20075;-71
2023/03/15 03:23:36;;;;;;;3.38;2.47;;;;;;;7.07;52.93;98365.81;5084589;28;20247;-71
2023/03/15 03:26:04;;;;;;;3.22;2.40;;;;;;;7.05;52.96;98373.78;5084078;28;20044;-72
2023/03/15 03:28:32;;;;;;;4.68;2.50;;;;;;;7.04;52.83;98385.28;5084214;28;20367;-71
2023/03/15 03:30:59;;;;;;;3.17;2.50;;;;;;;7.04;52.95;98371.25;5085226;28;20040;-70
2023/03/15 03:33:26;;;;;;;3.50;2.60;;;;;;;7.00;52.92;98375.00;5084917;28;20127;-70
2023/03/15 03:35:53;;;;;;;4.60;3.00;;;;;;;6.98;52.84;98368.97;5084501;28;20040;-71
2023/03/15 03:38:21;;;;;;;3.60;2.90;;;;;;;6.72;52.97;98337.00;5085493;28;20268;-70
2023/03/15 03:40:48;;;;;;;3.50;2.80;;;;;;;6.94;52.85;98364.81;5085437;28;20044;-71
2023/03/15 03:43:15;;;;;;;4.20;2.67;;;;;;;6.90;53.25;98372.03;5084050;28;20036;-71
2023/03/15 03:45:42;;;;;;;3.97;2.78;;;;;;;6.89;52.91;98372.97;5085000;28;20040;-71
2023/03/15 03:48:08;;;;;;;5.40;2.63;;;;;;;6.86;52.98;98388.94;5085068;28;20036;-71
2023/03/15 03:50:35;;;;;;;3.33;2.70;;;;;;;6.83;52.97;98401.41;5083960;28;20102;-70
2023/03/15 03:53:02;;;;;;;3.80;2.58;;;;;;;6.78;52.95;98409.53;5085062;28;20044;-71
2023/03/15 03:55:32;;;;;;;3.78;2.67;;;;;;;5.40;52.83;98186.41;5084968;28;20036;-71
2023/03/15 03:57:59;;;;;;;3.47;2.65;;;;;;;6.35;52.80;98340.81;5084652;28;20086;-70
2023/03/15 04:00:26;;;;;;;5.63;3.80;;;;;;;6.70;52.55;98417.84;5084955;28;20040;-71
2023/03/15 04:02:53;;;;;;;3.17;2.67;;;;;;;6.67;52.42;98404.00;5085472;28;20051;-70
2023/03/15 04:05:21;;;;;;;4.50;3.58;;;;;;;6.62;51.96;98400.78;5087399;28;20048;-71
2023/03/15 04:07:47;;;;;;;4.22;2.55;;;;;;;6.61;52.04;98412.25;5088469;28;20036;-71
2023/03/15 04:10:14;;;;;;;4.97;2.67;;;;;;;6.61;51.60;98410.47;5088178;28;20054;-71
2023/03/15 04:12:43;;;;;;;4.55;2.20;;;;;;;6.53;51.11;98403.91;5088337;28;20040;-70
2023/03/15 04:15:11;;;;;;;4.50;2.40;;;;;;;6.58;50.98;98420.31;5088095;28;20037;-70
2023/03/15 04:17:38;;;;;;;6.70;2.67;;;;;;;6.57;50.53;98423.88;5088655;28;20051;-70
2023/03/15 04:20:09;;;;;;;7.65;3.10;;;;;;;6.51;50.40;98426.81;5087248;28;20056;-70
2023/03/15 04:22:36;;;;;;;5.05;2.85;;;;;;;6.46;50.23;98429.72;5088280;28;20292;-71
2023/03/15 04:25:03;;;;;;;5.03;2.22;;;;;;;6.41;49.93;98429.94;5088695;28;20108;-71
2023/03/15 04:27:30;;;;;;;5.55;2.30;;;;;;;6.10;49.70;98385.13;5087777;28;20052;-71
2023/03/15 04:29:58;;;;;;;6.38;2.20;;;;;;;5.97;49.75;98373.56;5087961;28;20044;-71
2023/03/15 04:32:25;;;;;;;4.68;2.65;;;;;;;6.29;49.64;98446.38;5087883;28;20235;-71
2023/03/15 04:34:54;;;;;;;5.22;2.25;;;;;;;6.25;49.61;98457.16;5090822;28;20241;-71
2023/03/15 04:37:21;;;;;;;7.25;2.78;;;;;;;2.45;49.43;97832.34;5090204;28;20037;-71
2023/03/15 04:39:48;;;;;;;4.47;2.60;;;;;;;6.23;49.62;98464.28;5089799;28;20305;-71
2023/03/15 04:42:14;;;;;;;4.75;2.78;;;;;;;6.22;49.39;98459.94;5072276;28;20051;-71
2023/03/15 04:44:41;;;;;;;9.20;3.10;;;;;;;3.72;49.56;98084.59;5090634;28;20064;-71
2023/03/15 04:47:09;;;;;;;5.35;2.85;;;;;;;5.80;48.97;98405.97;5088337;28;20041;-71
2023/03/15 04:49:36;;;;;;;6.60;3.15;;;;;;;6.08;49.02;98487.81;5087102;28;20044;-72
2023/03/15 04:52:04;;;;;;;4.00;2.15;;;;;;;5.74;49.14;98414.19;5088146;28;20348;-72
2023/03/15 04:54:30;;;;;;;7.00;3.88;;;;;;;6.10;49.15;98471.94;5086658;28;20040;-72
2023/03/15 04:56:57;;;;;;;6.15;2.78;;;;;;;6.10;49.12;98483.31;5088009;28;20099;-71
2023/03/15 04:59:24;;;;;;;5.78;2.38;;;;;;;4.26;49.07;98208.75;5087707;28;20281;-72
2023/03/15 05:01:51;;;;;;;9.68;3.72;;;;;;;6.07;48.83;98486.09;5087926;28;20040;-72
2023/03/15 05:04:20;;;;;;;6.60;2.17;;;;;;;6.05;48.68;98501.13;5053555;28;20082;-71
2023/03/15 05:06:47;;;;;;;5.15;2.97;;;;;;;6.04;48.74;98488.03;5086393;28;20123;-72
2023/03/15 05:09:17;;;;;;;6.80;3.35;;;;;;;6.01;48.83;98493.44;5086418;28;20047;-73
2023/03/15 05:11:44;;;;;;;5.72;3.33;;;;;;;5.59;48.73;98425.44;5087485;28;20351;-72
2023/03/15 05:14:11;;;;;;;5.93;2.58;;;;;;;5.96;48.78;98504.19;5086714;28;20037;-73
2023/03/15 05:16:38;;;;;;;3.88;2.22;;;;;;;5.59;48.52;98439.44;5087424;28;20051;-72
2023/03/15 05:19:05;;;;;;;4.57;2.38;;;;;;;5.95;48.48;98501.66;5086194;28;20215;-71
2023/03/15 05:21:33;;;;;;;6.13;2.50;;;;;;;5.91;48.54;98506.22;5087452;28;20059;-72
2023/03/15 05:24:00;;;;;;;6.78;2.72;;;;;;;5.90;48.50;98507.13;5087288;28;20056;-72
2023/03/15 05:26:26;;;;;;;15.10;3.20;;;;;;;5.87;48.32;98509.91;5085807;28;20044;-72
2023/03/15 05:28:53;;;;;;;6.13;2.45;;;;;;;5.86;48.36;98520.50;5087029;28;20116;-72
2023/03/15 05:31:20;;;;;;;4.60;2.15;;;;;;;4.68;48.30;98328.31;5085978;28;20208;-71
2023/03/15 05:33:47;;;;;;;5.78;2.83;;;;;;;5.15;48.42;98414.50;5069603;28;20323;-72
2023/03/15 05:36:14;;;;;;;5.45;2.42;;;;;;;5.80;48.16;98526.94;5086046;28;20094;-72
2023/03/15 05:38:42;;;;;;;6.75;2.42;;;;;;;5.76;48.15;98515.72;5086371;28;20041;-72
2023/03/15 05:41:09;;;;;;;6.30;2.67;;;;;;;5.75;48.33;98524.53;5085806;28;20032;-72
2023/03/15 05:43:36;;;;;;;6.10;2.72;;;;;;;5.05;48.23;98404.44;5086472;28;20048;-71
2023/03/15 05:46:02;;;;;;;4.32;2.80;;;;;;;5.05;48.22;98411.44;5086336;28;20039;-72
2023/03/15 05:48:31;;;;;;;5.35;2.78;;;;;;;5.72;48.18;98537.81;5068988;28;20036;-72
2023/03/15 05:50:58;;;;;;;4.68;2.22;;;;;;;4.89;48.15;98384.19;5086358;28;20079;-71
2023/03/15 05:53:24;;;;;;;6.38;2.75;;;;;;;5.73;48.13;98534.25;5069213;28;20050;-72
2023/03/15 05:55:53;;;;;;;8.38;3.13;;;;;;;5.11;48.06;98440.06;5085619;28;20293;-72
2023/03/15 05:58:19;;;;;;;7.35;2.78;;;;;;;5.51;48.01;98519.59;5086706;28;20048;-72
2023/03/15 06:00:48;;;;;;;5.57;2.35;;;;;;;5.75;47.79;98560.47;5086843;28;20042;-71
2023/03/15 06:03:14;;;;;;;5.13;2.22;;;;;;;5.74;47.72;98572.78;5086394;28;20108;-72
2023/03/15 06:05:41;;;;;;;3.60;2.20;;;;;;;5.76;47.67;98583.22;5085199;28;20045;-72
2023/03/15 06:08:08;;;;;;;5.47;2.60;;;;;;;5.07;47.41;98464.75;5086587;28;20032;-72
2023/03/15 06:10:35;;;;;;;5.22;2.53;;;;;;;5.74;47.55;98567.50;5086010;28;20044;-72
2023/03/15 06:13:03;;;;;;;4.38;2.00;;;;;;;5.75;47.44;98577.09;5086248;28;20111;-72
2023/03/15 06:15:30;;;;;;;4.95;2.25;;;;;;;5.75;47.27;98578.88;5085068;28;20047;-72
2023/03/15 06:17:56;;;;;;;8.60;3.10;;;;;;;5.74;47.06;98582.44;5086371;28;20192;-72
2023/03/15 06:20:23;;;;;;;4.18;2.28;;;;;;;5.71;47.14;98579.97;5084928;28;20041;-72
2023/03/15 06:22:50;;;;;;;4.32;2.20;;;;;;;5.63;47.05;98576.84;5084951;28;20037;-72
2023/03/15 06:25:17;;;;;;;4.82;2.42;;;;;;;5.66;47.15;98592.47;5067708;28;20040;-73
2023/03/15 06:27:44;;;;;;;7.50;2.25;;;;;;;5.61;46.93;98581.31;5085471;28;20055;-72
2023/03/15 06:30:13;;;;;;;6.05;3.33;;;;;;;5.66;46.82;98608.25;5086116;28;20258;-72
2023/03/15 06:32:40;;;;;;;5.43;2.42;;;;;;;5.68;46.74;98603.75;5085868;28;20055;-72
2023/03/15 06:35:07;;;;;;;4.60;2.30;;;;;;;4.61;46.85;98430.09;5084800;28;20044;-72
2023/03/15 06:37:35;;;;;;;8.00;2.20;;;;;;;5.69;46.68;98613.34;5085727;28;20032;-72
2023/03/15 06:40:04;;;;;;;6.20;2.22;;;;;;;5.69;46.66;98618.63;5085720;28;20089;-72
2023/03/15 06:42:31;;;;;;;6.03;2.05;;;;;;;4.60;46.54;98433.66;5084713;28;20048;-72
2023/03/15 06:44:58;;;;;;;6.47;2.30;;;;;;;5.75;46.53;98623.59;5085998;28;20032;-72
2023/03/15 06:47:27;;;;;;;4.60;2.20;;;;;;;5.40;46.26;98580.53;5084600;28;20117;-72
2023/03/15 06:49:53;;;;;;;4.18;2.03;;;;;;;5.52;46.39;98606.25;5086012;28;20203;-72
2023/03/15 06:52:20;;;;;;;4.88;2.20;;;;;;;4.87;46.26;98520.78;5086007;28;20046;-72
2023/03/15 06:54:47;;;;;;;4.45;2.40;;;;;;;5.77;46.23;98654.13;5085380;28;20233;-72
2023/03/15 06:57:14;;;;;;;6.72;2.40;;;;;;;5.81;46.08;98659.25;5085292;28;20126;-72
2023/03/15 06:59:40;;;;;;;4.90;2.85;;;;;;;5.19;46.11;98557.91;5085621;28;20044;-72
2023/03/15 07:02:13;;;;;;;6.50;2.20;;;;;;;5.82;45.27;98655.69;5068742;28;20042;-72
2023/03/15 07:04:43;;;;;;;4.25;2.00;;;;;;;5.81;45.56;98664.50;5084916;28;20044;-72
2023/03/15 07:07:10;;;;;;;3.80;2.30;;;;;;;5.83;45.52;98668.78;5085265;28;20066;-72
2023/03/15 07:09:37;;;;;;;4.03;2.17;;;;;;;5.84;45.60;98681.00;5084566;28;20037;-72
2023/03/15 07:12:04;;;;;;;6.68;2.63;;;;;;;5.85;45.74;98687.13;5085704;28;20056;-72
2023/03/15 07:14:31;;;;;;;6.60;2.60;;;;;;;5.86;45.50;98683.56;5084591;28;20037;-72
2023/03/15 07:16:57;;;;;;;6.40;2.13;;;;;;;5.32;45.60;98608.94;5085746;28;20036;-72
2023/03/15 07:19:24;;;;;;;7.43;2.08;;;;;;;5.90;45.40;98700.91;5085495;28;20052;-71
2023/03/15 07:21:52;;;;;;;8.38;3.92;;;;;;;5.90;45.15;98709.63;5085050;28;20045;-72
2023/03/15 07:24:19;;;;;;;6.30;3.13;;;;;;;5.93;45.33;98706.00;5085231;28;20036;-72
2023/03/15 07:26:46;;;;;;;4.22;2.20;;;;;;;5.91;45.25;98718.38;5083684;28;20058;-71
2023/03/15 07:29:13;;;;;;;5.40;2.35;;;;;;;5.21;45.09;98617.31;5085772;28;20200;-71
2023/03/15 07:31:39;;;;;;;5.97;3.38;;;;;;;5.33;45.12;98644.81;5084719;28;20040;-72
2023/03/15 07:34:06;;;;;;;6.15;3.67;;;;;;;5.89;45.07;98747.38;5084250;28;20040;-72
2023/03/15 07:36:33;;;;;;;6.13;2.90;;;;;;;5.92;45.21;98741.13;5084817;28;20045;-72
2023/03/15 07:39:01;;;;;;;5.93;3.08;;;;;;;5.97;44.86;98744.41;5087682;28;20106;-72
2023/03/15 07:41:28;;;;;;;6.15;2.40;;;;;;;4.89;44.90;98560.09;5088999;28;20041;-71
2023/03/15 07:43:55;;;;;;;6.25;2.28;;;;;;;6.05;44.81;98751.03;5089278;28;20051;-72
2023/03/15 07:46:21;;;;;;;3.47;2.00;;;;;;;6.12;44.59;98751.59;5088756;28;20036;-72
2023/03/15 07:48:48;;;;;;;6.80;3.60;;;;;;;5.92;44.62;98710.44;5087764;28;20253;-72
2023/03/15 07:51:15;;;;;;;9.38;4.07;;;;;;;6.26;44.56;98753.56;5088304;28;20207;-72
2023/03/15 07:53:42;;;;;;;4.85;2.55;;;;;;;6.32;44.35;98761.16;5088798;28;20233;-72
2023/03/15 07:56:10;;;;;;;5.68;2.63;;;;;;;6.40;44.41;98769.56;5087317;28;20311;-72
2023/03/15 07:58:37;;;;;;;5.22;2.58;;;;;;;6.49;44.29;98758.59;5088455;28;20040;-72
2023/03/15 08:01:05;;;;;;;5.82;2.60;;;;;;;6.55;44.21;98762.72;5088910;28;20081;-72
2023/03/15 08:03:32;;;;;;;5.32;2.70;;;;;;;3.11;43.88;98200.00;5087501;28;20063;-72
2023/03/15 08:05:58;;;;;;;4.32;2.50;;;;;;;6.73;44.06;98772.34;5088596;28;20318;-72
2023/03/15 08:08:26;;;;;;;6.57;2.50;;;;;;;6.89;43.80;98768.06;5088269;28;20036;-72
2023/03/15 08:10:54;;;;;;;5.93;2.47;;;;;;;7.02;43.44;98763.03;5088281;28;20048;-72
2023/03/15 08:13:23;;;;;;;5.28;2.28;;;;;;;5.60;43.36;98548.91;5088083;28;20045;-72
2023/03/15 08:15:49;;;;;;;3.85;2.38;;;;;;;7.40;43.08;98761.13;5087585;28;20036;-72
2023/03/15 08:18:16;;;;;;;6.47;2.80;;;;;;;7.58;43.03;98764.59;5086932;28;20045;-72
2023/03/15 08:20:43;;;;;;;6.93;3.38;;;;;;;7.81;42.82;98768.66;5088086;28;20037;-72
2023/03/15 08:23:15;;;;;;;5.22;3.10;;;;;;;8.05;42.64;98766.50;5088104;28;20079;-73
2023/03/15 08:25:42;;;;;;;5.03;2.50;;;;;;;8.30;42.22;98774.78;5087094;28;20044;-73
2023/03/15 08:28:10;;;;;;;4.78;2.58;;;;;;;8.59;42.15;98773.16;5086672;28;20051;-73
2023/03/15 08:30:38;;;;;;;6.00;2.55;;;;;;;8.80;41.48;98781.66;5087978;28;20040;-72
2023/03/15 08:33:05;;;;;;;8.35;2.65;;;;;;;6.10;40.93;98336.00;5087272;28;20055;-73
2023/03/15 08:35:33;;;;;;;7.55;2.83;;;;;;;8.91;41.08;98788.03;5088377;28;20041;-71
2023/03/15 08:38:01;;;;;;;7.97;2.90;;;;;;;8.06;40.80;98646.78;5087883;28;20032;-72
2023/03/15 08:40:29;;;;;;;7.10;2.50;;;;;;;8.86;41.40;98813.88;5087516;28;20036;-73
2023/03/15 08:42:57;;;;;;;6.22;3.13;;;;;;;8.26;40.91;98692.25;5086835;28;20040;-72
2023/03/15 08:45:24;;;;;;;6.07;2.75;;;;;;;8.91;40.96;98740.47;5087611;28;20111;-73
2023/03/15 08:47:56;;;;;;;6.30;2.65;;;;;;;9.52;39.23;98796.88;5088344;28;20041;-73
2023/03/15 08:50:23;;;;;;;8.07;3.58;;;;;;;8.83;40.00;98670.50;5085743;28;20044;-73
2023/03/15 08:52:50;;;;;;;5.53;3.08;;;;;;;9.60;39.91;98807.84;5086779;28;20251;-73
2023/03/15 08:55:17;;;;;;;5.13;2.58;;;;;;;9.73;39.64;98808.81;5087903;28;20048;-73
2023/03/15 08:57:44;;;;;;;5.80;2.60;;;;;;;9.47;39.57;98764.56;5087548;28;20041;-73
2023/03/15 09:00:16;;;;;;;7.05;2.30;;;;;;;8.66;39.54;98632.72;5087473;28;20040;-72
2023/03/15 09:02:47;;;;;;;4.38;2.60;;;;;;;9.58;39.79;98775.34;5087772;28;20040;-73
2023/03/15 09:05:16;;;;;;;6.50;2.90;;;;;;;9.88;39.10;98815.81;5087498;28;20064;-72
2023/03/15 09:07:45;;;;;;;6.43;2.60;;;;;;;9.39;39.23;98748.25;5086842;28;20040;-72
2023/03/15 09:10:14;;;;;;;13.07;3.13;;;;;;;9.97;38.95;98819.72;5087818;28;20293;-73
2023/03/15 09:12:41;;;;;;;9.05;2.80;;;;;;;10.00;39.08;98821.31;5087438;28;20040;-73
2023/03/15 09:15:08;;;;;;;5.95;2.38;;;;;;;10.04;38.91;98826.31;5086719;28;20256;-72
2023/03/15 09:17:36;;;;;;;6.22;2.63;;;;;;;10.09;38.79;98832.19;5086081;28;20406;-72
2023/03/15 09:20:07;;;;;;;6.50;2.30;;;;;;;10.28;38.84;98834.56;5086266;28;20063;-72
2023/03/15 09:22:36;;;;;;;5.75;2.75;;;;;;;10.02;38.23;98759.38;5070545;28;20040;-73
2023/03/15 09:25:03;;;;;;;7.57;3.33;;;;;;;10.52;38.13;98833.03;5086532;28;20322;-73
2023/03/15 09:27:30;;;;;;;5.40;2.60;;;;;;;10.60;37.94;98840.47;5086781;28;20204;-73
2023/03/15 09:29:57;;;;;;;7.15;3.67;;;;;;;10.30;38.21;98778.84;5087141;28;20036;-73
2023/03/15 09:32:24;;;;;;;5.07;2.45;;;;;;;10.40;37.68;98770.22;5086231;28;20045;-73
2023/03/15 09:34:51;;;;;;;8.32;2.92;;;;;;;10.50;37.41;98767.81;5086086;28;20192;-72
2023/03/15 09:37:19;;;;;;;6.80;2.75;;;;;;;11.07;37.20;98845.41;5086739;28;20152;-73
2023/03/15 09:39:47;;;;;;;9.32;3.00;;;;;;;10.06;36.73;98670.88;5086523;28;20193;-73
2023/03/15 09:42:23;;;;;;;6.18;2.50;;;;;;;11.30;34.71;98858.97;5086942;28;20043;-73
2023/03/15 09:44:55;;;;;;;4.97;2.65;;;;;;;10.67;35.63;98758.78;5086874;28;20048;-73
2023/03/15 09:47:33;;;;;;;4.47;2.33;;;;;;;11.28;34.44;98867.03;5086844;28;20054;-73
2023/03/15 09:50:04;;;;;;;6.20;2.88;;;;;;;11.37;35.22;98858.47;5085870;28;20045;-73
2023/03/15 09:52:39;;;;;;;6.90;3.50;;;;;;;10.02;35.09;98636.75;5087569;28;20037;-73
2023/03/15 09:55:16;;;;;;;6.55;2.65;;;;;;;11.22;33.64;98817.88;5086018;28;20044;-74
2023/03/15 09:57:47;;;;;;;12.23;3.47;;;;;;;6.19;35.32;97989.16;5085790;28;20058;-73
2023/03/15 10:00:21;;;;;;;7.93;3.17;;;;;;;10.33;35.74;98684.16;5085667;28;20297;-73
2023/03/15 10:02:57;;;;;;;7.78;2.90;;;;;;;10.95;34.27;98774.63;5086269;28;20234;-73
2023/03/15 10:05:41;;;;;;;10.20;2.85;;;;;;;11.28;32.81;98840.50;5086593;28;20060;-73
2023/03/15 10:08:11;;;;;;;5.82;2.63;;;;;;;10.72;35.53;98854.75;5086177;28;20046;-73
2023/03/15 10:10:45;;;;;;;4.93;2.45;;;;;;;11.24;35.46;98861.06;5086601;28;20086;-73
2023/03/15 10:13:25;;;;;;;7.25;3.22;;;;;;;10.94;33.34;98788.84;5086650;28;20070;-74
2023/03/15 10:16:01;;;;;;;7.18;2.95;;;;;;;11.48;33.82;98860.41;5086318;28;20188;-73
2023/03/15 10:18:45;;;;;;;5.90;2.55;;;;;;;11.61;33.23;98858.63;5085331;28;20043;-74
2023/03/15 10:21:16;;;;;;;6.27;2.83;;;;;;;11.75;34.79;98863.88;5086266;28;20050;-73
2023/03/15 10:23:49;;;;;;;6.47;2.63;;;;;;;11.88;33.78;98859.41;5085693;28;20044;-73
2023/03/15 10:26:23;;;;;;;9.35;3.78;;;;;;;9.13;33.16;98369.13;5068282;28;20271;-73
2023/03/15 10:28:51;;;;;;;5.65;2.40;;;;;;;12.13;34.67;98861.28;5069113;28;20051;-73
2023/03/15 10:31:23;;;;;;;8.63;2.58;;;;;;;12.09;34.15;98851.81;5085972;28;20048;-74
2023/03/15 10:33:51;;;;;;;3.53;2.03;;;;;;;12.10;34.73;98856.16;5086011;28;20047;-73
2023/03/15 10:36:20;;;;;;;6.63;2.97;;;;;;;11.71;34.45;98779.22;5084962;28;20036;-73
2023/03/15 10:38:49;;;;;;;6.60;2.80;;;;;;;11.69;34.33;98763.41;5085786;28;20044;-73
2023/03/15 10:41:36;;;;;;;4.75;2.25;;;;;;;11.05;31.88;98660.84;5086078;28;20071;-73
2023/03/15 10:44:05;;;;;;;5.75;2.42;;;;;;;12.08;34.06;98852.75;5085036;28;20235;-74
2023/03/15 10:46:34;;;;;;;6.70;3.03;;;;;;;11.98;34.24;98842.84;5085826;28;20044;-73
2023/03/15 10:49:10;;;;;;;4.85;2.15;;;;;;;11.15;32.40;98715.81;5085953;28;20104;-74
2023/03/15 10:51:40;;;;;;;6.25;3.47;;;;;;;11.96;33.54;98852.72;5085524;28;20107;-71
2023/03/15 10:54:12;;;;;;;5.63;2.40;;;;;;;11.93;34.19;98851.13;5084787;28;20276;-73
2023/03/15 10:56:47;;;;;;;7.07;2.88;;;;;;;11.91;32.17;98847.72;5085486;28;20367;-72
2023/03/15 10:59:19;;;;;;;4.30;2.33;;;;;;;11.93;32.51;98839.66;5085303;28;20044;-72
2023/03/15 11:01:48;;;;;;;6.55;2.33;;;;;;;10.65;33.42;98625.53;5086091;28;20120;-72
2023/03/15 11:04:18;;;;;;;8.13;2.78;;;;;;;12.02;33.38;98845.22;5086055;28;20036;-72
2023/03/15 11:06:48;;;;;;;7.88;3.03;;;;;;;11.48;33.05;98773.69;5084974;28;20090;-72
2023/03/15 11:09:17;;;;;;;4.57;2.78;;;;;;;11.96;33.20;98836.78;5084724;28;20055;-73
2023/03/15 11:11:57;;;;;;;5.93;2.92;;;;;;;12.00;31.07;98852.44;5085652;28;20214;-72
2023/03/15 11:14:24;;;;;;;4.43;1.98;;;;;;;11.30;33.36;98735.13;5089985;28;20154;-72
2023/03/15 11:16:54;;;;;;;9.52;2.72;;;;;;;11.93;32.20;98848.47;5088518;28;20458;-72
2023/03/15 11:19:25;;;;;;;5.55;2.15;;;;;;;11.83;32.61;98844.75;5089303;28;20045;-73
2023/03/15 11:21:53;;;;;;;5.28;2.90;;;;;;;11.64;33.07;98812.47;5089080;28;20119;-72
2023/03/15 11:24:26;;;;;;;5.70;2.80;;;;;;;11.78;31.88;98841.56;5089738;28;20040;-72
2023/03/15 11:27:00;;;;;;;6.13;2.25;;;;;;;9.83;33.01;98526.78;5089081;28;20053;-73
2023/03/15 11:29:30;;;;;;;8.23;3.03;;;;;;;11.70;33.43;98852.69;5089576;28;20052;-72
2023/03/15 11:31:59;;;;;;;8.82;4.07;;;;;;;7.83;33.34;98231.28;5089090;28;20050;-72
2023/03/15 11:34:36;;;;;;;9.43;2.78;;;;;;;10.96;32.08;98747.16;5089338;28;20055;-72
2023/03/15 11:37:11;;;;;;;4.47;2.45;;;;;;;11.45;33.21;98845.53;5088863;28;20040;-72
2023/03/15 11:39:44;;;;;;;6.28;2.25;;;;;;;11.45;33.22;98842.88;5087551;28;20048;-72
2023/03/15 11:42:18;;;;;;;7.70;3.08;;;;;;;9.92;31.75;98608.22;5088612;28;20059;-72
2023/03/15 11:44:47;;;;;;;5.60;2.10;;;;;;;11.23;32.67;98864.69;5088729;28;20095;-72